Time;durP1;ratioP1;P1;durP2;ratioP2;P2;SDS_P1;SDS_P2;PMS_P1;PMS_P2;Temp;Humidity;BMP_temperature;BMP_pressure;BME280_temperature;BME280_humidity;BME280_pressure;Samples;Min_cycle;Max_cycle;Signal;HPM_P1;HPM_P2
2022/02/17 00:01:14;;;;;;;1.30;1.17;;;13.50;1.00;13.80;98573.00;;;;5068254;28;20527;-80
2022/02/17 00:03:44;;;;;;;1.20;0.90;;;13.50;1.00;13.80;98553.00;;;;5038424;28;20455;-81
2022/02/17 00:06:14;;;;;;;1.00;0.70;;;13.50;1.00;13.80;98501.00;;;;5039291;28;20452;-82
2022/02/17 00:08:44;;;;;;;1.30;0.93;;;13.40;1.00;13.80;98548.00;;;;5039586;28;20511;-81
2022/02/17 00:11:13;;;;;;;1.30;1.00;;;13.40;1.00;13.70;98547.00;;;;5038143;28;20590;-80
2022/02/17 00:13:42;;;;;;;1.40;1.13;;;13.40;1.00;13.70;98542.00;;;;5043005;28;20451;-82
2022/02/17 00:16:10;;;;;;;1.30;0.80;;;13.40;1.00;13.80;98520.00;;;;5044316;28;20452;-80
2022/02/17 00:18:39;;;;;;;1.87;0.90;;;13.40;1.00;13.70;98560.00;;;;5041688;28;20547;-81
2022/02/17 00:21:09;;;;;;;1.70;1.00;;;13.40;1.00;13.70;98524.00;;;;5053676;28;20516;-81
2022/02/17 00:23:38;;;;;;;1.10;1.00;;;13.30;1.00;13.70;98549.00;;;;5049796;28;20551;-81
2022/02/17 00:26:07;;;;;;;4.13;1.20;;;13.40;1.00;13.80;98539.00;;;;5040489;28;20494;-81
2022/02/17 00:28:36;;;;;;;1.10;0.70;;;13.40;1.00;13.80;98526.00;;;;5032249;28;20468;-82
2022/02/17 00:31:06;;;;;;;1.30;0.90;;;13.40;1.00;13.80;98554.00;;;;5063363;28;20479;-83
2022/02/17 00:33:38;;;;;;;1.10;0.80;;;13.40;1.00;13.80;98547.00;;;;5035668;28;20953;-82
2022/02/17 00:36:11;;;;;;;2.80;1.00;;;13.50;1.00;13.80;98544.00;;;;5068333;28;20483;-81
2022/02/17 00:38:39;;;;;;;1.20;0.90;;;13.40;1.00;13.80;98543.00;;;;5035885;28;20459;-82
2022/02/17 00:41:07;;;;;;;1.00;0.60;;;13.50;1.00;13.70;98508.00;;;;5034725;28;20486;-82
2022/02/17 00:43:35;;;;;;;1.77;0.80;;;13.40;1.00;13.60;98526.00;;;;5032311;28;20471;-80
2022/02/17 00:46:05;;;;;;;1.10;0.80;;;13.30;1.00;13.60;98521.00;;;;5027291;28;20540;-80
2022/02/17 00:48:35;;;;;;;1.07;0.83;;;13.30;1.00;13.50;98527.00;;;;5012990;28;20460;-80
2022/02/17 00:51:04;;;;;;;2.23;1.20;;;13.20;1.00;13.50;98516.00;;;;5060197;28;20492;-79
2022/02/17 00:53:36;;;;;;;2.57;1.10;;;13.10;1.00;13.50;98513.00;;;;5060503;28;20457;-82
2022/02/17 00:56:07;;;;;;;1.93;1.20;;;13.10;1.00;13.50;98494.00;;;;5064650;28;20467;-79
2022/02/17 00:58:35;;;;;;;1.20;0.83;;;13.20;1.00;13.50;98489.00;;;;5048120;28;20980;-82
2022/02/17 01:01:07;;;;;;;2.03;1.00;;;13.20;1.00;13.60;98513.00;;;;5041866;28;20483;-79
2022/02/17 01:03:35;;;;;;;1.23;1.13;;;13.20;1.00;13.60;98512.00;;;;5044818;28;20459;-77
2022/02/17 01:06:04;;;;;;;1.50;1.10;;;13.30;1.00;13.70;98501.00;;;;5074341;28;20535;-81
2022/02/17 01:08:33;;;;;;;1.10;0.80;;;13.30;1.00;13.80;98461.00;;;;5062380;28;20992;-80
2022/02/17 01:11:06;;;;;;;1.47;0.97;;;13.40;1.00;13.80;98499.00;;;;5042959;28;20469;-80
2022/02/17 01:13:35;;;;;;;1.40;0.93;;;13.40;1.00;13.80;98512.00;;;;5075568;28;21120;-81
2022/02/17 01:16:04;;;;;;;1.50;1.20;;;13.40;1.00;13.90;98483.00;;;;5062233;28;20452;-79
2022/02/17 01:18:32;;;;;;;2.03;1.20;;;13.50;1.00;13.90;98495.00;;;;5047532;28;20498;-78
2022/02/17 01:21:02;;;;;;;1.83;1.20;;;13.50;1.00;13.90;98511.00;;;;5052659;28;20480;-81
2022/02/17 01:23:31;;;;;;;2.07;1.30;;;13.60;1.00;13.90;98496.00;;;;5086561;28;20456;-79
2022/02/17 01:26:04;;;;;;;3.40;1.63;;;13.50;1.00;13.90;98515.00;;;;5071867;28;20456;-79
2022/02/17 01:28:41;;;;;;;1.87;1.00;;;13.50;1.00;13.90;98525.00;;;;5060504;28;20536;-78
2022/02/17 01:31:13;;;;;;;1.90;1.30;;;13.50;1.00;13.90;98516.00;;;;5054164;28;20512;-80
2022/02/17 01:33:42;;;;;;;1.27;1.00;;;13.50;1.00;13.80;98512.00;;;;5061636;28;20456;-80
2022/02/17 01:36:16;;;;;;;1.77;1.10;;;13.50;1.00;13.80;98524.00;;;;5069838;28;20542;-82
2022/02/17 01:38:45;;;;;;;1.83;1.40;;;13.50;1.00;13.80;98512.00;;;;5044948;28;20448;-82
2022/02/17 01:41:17;;;;;;;1.00;0.77;;;13.40;1.00;13.70;98518.00;;;;5044450;28;20478;-82
2022/02/17 01:43:49;;;;;;;1.10;0.80;;;13.30;1.00;13.70;98507.00;;;;5072180;28;20532;-82
2022/02/17 01:46:32;;;;;;;2.13;1.40;;;13.30;1.00;13.70;98510.00;;;;5019933;28;20580;-80
2022/02/17 01:49:01;;;;;;;2.00;1.07;;;13.30;1.00;13.50;98519.00;;;;5030108;28;20457;-83
2022/02/17 01:51:31;;;;;;;1.70;1.00;;;13.20;1.00;13.30;98506.00;;;;5031383;28;20516;-79
2022/02/17 01:53:59;;;;;;;1.83;1.10;;;13.00;1.00;13.30;98483.00;;;;5034392;28;20517;-82
2022/02/17 01:56:33;;;;;;;1.90;1.20;;;12.90;1.00;13.20;98505.00;;;;5034570;28;20502;-82
2022/02/17 01:59:10;;;;;;;1.53;1.20;;;12.80;1.00;13.20;98487.00;;;;5068348;28;21009;-82
2022/02/17 02:01:46;;;;;;;1.40;1.27;;;12.80;1.00;13.20;98512.00;;;;5035593;28;20570;-82
2022/02/17 02:04:14;;;;;;;1.40;1.30;;;12.80;1.00;13.20;98485.00;;;;5033925;28;20584;-82
2022/02/17 02:06:44;;;;;;;1.50;1.03;;;12.80;1.00;13.10;98492.00;;;;5047344;28;21442;-82
2022/02/17 02:09:16;;;;;;;1.63;1.47;;;12.80;1.00;13.00;98498.00;;;;5032950;28;20471;-80
2022/02/17 02:12:07;;;;;;;1.37;1.27;;;12.70;1.00;13.00;98489.00;;;;5035877;28;20566;-81
2022/02/17 02:14:38;;;;;;;1.30;1.00;;;12.60;1.00;13.00;98501.00;;;;5067803;28;20456;-80
2022/02/17 02:17:16;;;;;;;1.60;1.50;;;12.70;1.00;13.10;98515.00;;;;5069280;28;20547;-82
2022/02/17 02:19:45;;;;;;;1.93;1.20;;;12.70;1.00;13.10;98513.00;;;;5046502;28;20893;-79
2022/02/17 02:22:15;;;;;;;1.83;1.13;;;12.70;1.00;13.10;98508.00;;;;5077126;28;20489;-79
2022/02/17 02:24:43;;;;;;;1.03;0.83;;;12.70;1.00;13.10;98512.00;;;;5083598;28;20469;-82
2022/02/17 02:27:14;;;;;;;1.50;1.00;;;12.70;1.00;13.00;98496.00;;;;5033120;28;20448;-81
2022/02/17 02:29:44;;;;;;;1.77;0.87;;;12.70;1.00;13.00;98517.00;;;;5060241;28;20996;-80
2022/02/17 02:32:15;;;;;;;1.20;0.90;;;12.70;1.00;13.00;98506.00;;;;5028030;28;20582;-79
2022/02/17 02:34:44;;;;;;;1.10;0.60;;;12.70;1.00;13.10;98511.00;;;;5040981;28;20445;-82
2022/02/17 02:37:17;;;;;;;1.93;0.90;;;12.80;1.00;13.10;98547.00;;;;5029355;28;20475;-82
2022/02/17 02:39:46;;;;;;;1.33;0.90;;;12.80;1.00;13.00;98549.00;;;;5027622;28;20579;-83
2022/02/17 02:42:16;;;;;;;2.00;0.80;;;12.70;1.00;13.00;98499.00;;;;5029628;28;20499;-81
2022/02/17 02:44:45;;;;;;;1.20;0.90;;;12.70;1.00;13.00;98526.00;;;;5030364;28;20448;-81
2022/02/17 02:47:13;;;;;;;1.30;0.73;;;12.60;1.00;13.00;98536.00;;;;5029231;28;20464;-79
2022/02/17 02:49:42;;;;;;;1.40;0.90;;;12.60;1.00;13.00;98517.00;;;;5030744;28;20487;-81
2022/02/17 02:52:10;;;;;;;2.03;0.80;;;12.60;1.00;12.90;98538.00;;;;5044100;28;20491;-82
2022/02/17 02:54:43;;;;;;;1.00;0.60;;;12.60;1.00;12.90;98529.00;;;;5027843;28;20511;-82
2022/02/17 02:57:11;;;;;;;0.80;0.43;;;12.60;1.00;12.90;98536.00;;;;5032405;28;20467;-82
2022/02/17 02:59:42;;;;;;;1.37;0.50;;;12.70;1.00;13.00;98547.00;;;;5029871;28;20468;-81
2022/02/17 03:02:19;;;;;;;1.40;0.40;;;12.60;1.00;13.00;98525.00;;;;5032948;28;20482;-82
2022/02/17 03:04:47;;;;;;;1.00;0.50;;;12.70;1.00;13.00;98548.00;;;;5031753;28;20543;-79
2022/02/17 03:07:17;;;;;;;0.80;0.40;;;12.70;1.00;12.90;98543.00;;;;5032537;28;20461;-83
2022/02/17 03:09:48;;;;;;;1.33;0.43;;;12.70;1.00;13.00;98559.00;;;;5031910;28;21012;-82
2022/02/17 03:12:18;;;;;;;2.53;0.50;;;13.00;1.00;13.00;98535.00;;;;5034313;28;20526;-82
2022/02/17 03:14:49;;;;;;;1.00;0.50;;;12.70;1.00;13.10;98542.00;;;;5036068;28;20449;-83
2022/02/17 03:17:25;;;;;;;0.90;0.40;;;12.80;1.00;13.10;98556.00;;;;5033176;28;20456;-80
2022/02/17 03:19:54;;;;;;;1.10;0.50;;;12.80;1.00;13.00;98555.00;;;;5031548;28;20460;-79
2022/02/17 03:22:24;;;;;;;2.13;0.87;;;12.80;1.00;13.00;98565.00;;;;5031354;28;20919;-83
2022/02/17 03:24:54;;;;;;;1.10;0.70;;;12.80;1.00;13.00;98586.00;;;;5051642;28;20569;-81
2022/02/17 03:27:24;;;;;;;1.07;0.60;;;12.80;1.00;13.00;98586.00;;;;5032739;28;20463;-82
2022/02/17 03:30:04;;;;;;;1.30;0.50;;;12.80;1.00;12.90;98603.00;;;;5038571;28;20485;-80
2022/02/17 03:32:32;;;;;;;3.00;0.53;;;12.70;1.00;12.90;98612.00;;;;5038279;28;20460;-83
2022/02/17 03:35:00;;;;;;;1.27;0.80;;;12.80;1.00;12.90;98578.00;;;;5035334;28;20472;-81
2022/02/17 03:37:34;;;;;;;1.97;0.50;;;12.70;1.00;12.90;98611.00;;;;5032885;28;21305;-83
2022/02/17 03:40:07;;;;;;;1.37;0.60;;;12.70;1.00;13.00;98609.00;;;;5042710;28;20453;-82
2022/02/17 03:42:51;;;;;;;1.80;0.60;;;12.80;1.00;13.10;98625.00;;;;5067617;28;20503;-81
2022/02/17 03:45:20;;;;;;;1.30;0.70;;;12.80;1.00;13.10;98602.00;;;;5031522;28;20483;-78
2022/02/17 03:47:49;;;;;;;1.23;0.57;;;12.90;1.00;13.20;98584.00;;;;5065970;28;20458;-81
2022/02/17 03:50:21;;;;;;;2.60;0.90;;;12.90;1.00;13.30;98636.00;;;;5030998;28;20483;-81
2022/02/17 03:53:03;;;;;;;3.27;0.87;;;13.00;1.00;13.30;98631.00;;;;5048447;28;20510;-79
2022/02/17 03:55:35;;;;;;;4.57;1.07;;;13.00;1.00;13.40;98644.00;;;;5036305;28;20459;-78
2022/02/17 03:58:04;;;;;;;3.10;0.97;;;13.10;1.00;13.30;98652.00;;;;5064769;28;20456;-76
2022/02/17 04:00:34;;;;;;;3.70;1.47;;;13.00;1.00;13.20;98640.00;;;;5043673;28;20477;-77
2022/02/17 04:03:05;;;;;;;3.27;1.60;;;12.90;1.00;13.20;98667.00;;;;5047058;28;20453;-80
2022/02/17 04:05:36;;;;;;;5.20;1.00;;;12.90;1.00;13.30;98661.00;;;;5050449;28;20454;-79
2022/02/17 04:08:06;;;;;;;4.90;1.23;;;13.00;1.00;13.30;98656.00;;;;5063724;28;20437;-78
2022/02/17 04:10:36;;;;;;;6.40;2.03;;;13.00;1.00;13.30;98703.00;;;;5055241;28;20469;-78
2022/02/17 04:13:12;;;;;;;3.60;1.40;;;13.00;1.00;13.30;98699.00;;;;5054206;28;20519;-77
2022/02/17 04:15:50;;;;;;;5.03;2.13;;;13.00;1.00;13.30;98678.00;;;;5069395;28;20699;-80
2022/02/17 04:18:30;;;;;;;5.20;1.80;;;13.00;1.00;13.30;98716.00;;;;5056002;28;20499;-80
2022/02/17 04:21:07;;;;;;;3.73;1.07;;;12.90;1.00;13.20;98721.00;;;;5041320;28;20476;-81
2022/02/17 04:23:50;;;;;;;2.10;1.37;;;12.80;1.00;13.10;98738.00;;;;5047075;28;20453;-81
2022/02/17 04:26:23;;;;;;;2.80;1.43;;;12.70;1.00;13.00;98754.00;;;;5043758;28;20459;-80
2022/02/17 04:28:57;;;;;;;6.53;1.63;;;12.70;1.00;13.10;98772.00;;;;5040773;28;20547;-78
2022/02/17 04:31:31;;;;;;;3.13;1.13;;;12.80;1.00;13.20;98748.00;;;;5046829;28;20551;-79
2022/02/17 04:33:59;;;;;;;8.17;2.57;;;12.80;1.00;13.10;98752.00;;;;5076658;28;20452;-77
2022/02/17 04:36:28;;;;;;;5.33;2.63;;;12.80;1.00;13.10;98797.00;;;;5075830;28;20459;-79
2022/02/17 04:38:56;;;;;;;3.23;1.10;;;12.80;1.00;13.10;98781.00;;;;5064957;28;20453;-80
2022/02/17 04:44:19;;;;;;;8.63;1.93;;;12.70;1.00;13.00;98802.00;;;;5064592;28;20440;-77
2022/02/17 04:46:48;;;;;;;5.27;1.70;;;12.70;1.00;13.10;98737.00;;;;5033687;28;20459;-78
2022/02/17 04:49:18;;;;;;;15.87;2.80;;;12.70;1.00;13.20;98785.00;;;;5031691;28;20463;-81
2022/02/17 04:51:46;;;;;;;5.53;2.20;;;12.90;1.00;13.20;98786.00;;;;5071473;28;20512;-81
2022/02/17 04:54:19;;;;;;;6.63;3.10;;;13.20;1.00;13.20;98807.00;;;;5049144;28;20456;-79
2022/02/17 04:56:50;;;;;;;6.70;1.90;;;12.90;1.00;13.10;98796.00;;;;5057637;28;20459;-78
2022/02/17 04:59:18;;;;;;;3.67;1.60;;;12.80;1.00;13.10;98816.00;;;;5028370;28;20574;-78
2022/02/17 05:01:48;;;;;;;10.90;2.67;;;12.70;1.00;13.00;98848.00;;;;5031962;28;20495;-83
2022/02/17 05:04:45;;;;;;;8.77;2.00;;;12.60;1.00;13.00;98833.00;;;;5028177;28;20527;-81
2022/02/17 05:07:19;;;;;;;9.13;2.43;;;12.60;1.00;12.90;98833.00;;;;5027848;28;20460;-78
2022/02/17 05:09:47;;;;;;;4.90;2.23;;;12.60;1.00;13.00;98829.00;;;;5030698;28;20519;-80
2022/02/17 05:12:18;;;;;;;6.27;2.20;;;12.60;1.00;13.00;98849.00;;;;5028143;28;20595;-81
2022/02/17 05:14:46;;;;;;;7.00;1.60;;;12.60;1.00;13.00;98837.00;;;;5031998;28;21094;-80
2022/02/17 05:17:19;;;;;;;8.57;2.93;;;12.60;1.00;12.90;98846.00;;;;5032198;28;20483;-80
2022/02/17 05:19:48;;;;;;;9.77;2.50;;;12.60;1.00;12.80;98851.00;;;;5047040;28;20456;-81
2022/02/17 05:22:19;;;;;;;6.80;1.80;;;12.50;1.00;12.90;98854.00;;;;5032192;28;20473;-82
2022/02/17 05:25:01;;;;;;;5.33;1.67;;;12.50;1.00;12.90;98861.00;;;;5067085;28;20441;-81
2022/02/17 05:27:50;;;;;;;8.23;2.30;;;12.50;1.00;12.80;98866.00;;;;5031706;28;20531;-79
2022/02/17 05:30:41;;;;;;;7.10;1.87;;;12.50;1.00;12.80;98877.00;;;;5020386;28;20906;-79
2022/02/17 05:33:39;;;;;;;8.60;2.27;;;12.50;1.00;12.80;98862.00;;;;5014301;28;20557;-80
2022/02/17 05:36:33;;;;;;;9.87;3.10;;;12.40;1.00;12.70;98883.00;;;;5035036;28;20504;-80
2022/02/17 05:39:12;;;;;;;8.17;2.50;;;12.40;1.00;12.70;98898.00;;;;5029780;28;20547;-80
2022/02/17 05:41:53;;;;;;;10.27;2.20;;;12.30;1.00;12.70;98886.00;;;;5043780;28;21275;-80
2022/02/17 05:44:23;;;;;;;10.07;2.83;;;12.30;1.00;12.80;98888.00;;;;5030284;28;21380;-78
2022/02/17 05:46:52;;;;;;;9.07;3.00;;;12.40;1.00;12.80;98884.00;;;;5031759;28;21036;-79
2022/02/17 05:49:20;;;;;;;9.00;2.83;;;12.50;1.00;12.80;98904.00;;;;5033123;28;20568;-82
2022/02/17 05:51:49;;;;;;;11.30;3.00;;;12.50;1.00;12.80;98907.00;;;;5065959;28;20481;-81
2022/02/17 05:54:17;;;;;;;8.90;3.27;;;12.50;1.00;12.80;98923.00;;;;5045356;28;20468;-79
2022/02/17 05:56:46;;;;;;;10.30;2.30;;;12.50;1.00;12.90;98929.00;;;;5047723;28;20452;-81
2022/02/17 05:59:14;;;;;;;7.97;2.80;;;12.50;1.00;12.90;98920.00;;;;5045003;28;20461;-77
2022/02/17 06:01:44;;;;;;;9.23;2.53;;;12.50;1.00;12.80;98925.00;;;;5043756;28;20487;-80
2022/02/17 06:04:14;;;;;;;5.87;2.20;;;12.50;1.00;12.80;98938.00;;;;5043595;28;20453;-79
2022/02/17 06:06:42;;;;;;;8.60;2.67;;;12.50;1.00;12.80;98959.00;;;;5045689;28;20456;-79
2022/02/17 06:09:11;;;;;;;12.47;3.83;;;12.50;1.00;12.80;98965.00;;;;5057799;28;20556;-81
2022/02/17 06:11:39;;;;;;;7.30;2.10;;;12.50;1.00;12.80;98971.00;;;;5056818;28;20511;-79
2022/02/17 06:14:10;;;;;;;12.47;2.90;;;12.50;1.00;12.80;98961.00;;;;5047007;28;20453;-79
2022/02/17 06:16:38;;;;;;;10.43;2.13;;;12.50;1.00;12.80;98947.00;;;;5073160;28;20457;-81
2022/02/17 06:19:08;;;;;;;13.40;3.50;;;12.50;1.00;12.80;98967.00;;;;5034920;28;20456;-80
2022/02/17 06:21:38;;;;;;;11.97;3.07;;;12.50;1.00;12.70;98966.00;;;;5038972;28;20472;-81
2022/02/17 06:24:07;;;;;;;13.43;2.80;;;12.40;1.00;12.70;98963.00;;;;5033961;28;20456;-79
2022/02/17 06:26:36;;;;;;;10.43;3.07;;;12.40;1.00;12.70;98987.00;;;;5031961;28;20461;-81
2022/02/17 06:29:05;;;;;;;11.90;2.97;;;12.30;1.00;12.70;98992.00;;;;5033622;28;20532;-81
2022/02/17 06:31:33;;;;;;;9.33;2.23;;;12.30;1.00;12.60;98999.00;;;;5072145;28;20483;-80
2022/02/17 06:34:02;;;;;;;10.70;2.90;;;12.20;1.00;12.40;98988.00;;;;5048344;28;20551;-78
2022/02/17 06:36:31;;;;;;;8.70;3.00;;;12.10;1.00;12.40;98990.00;;;;5048499;28;20544;-78
2022/02/17 06:39:00;;;;;;;15.83;4.40;;;12.10;1.00;12.30;99005.00;;;;5046080;28;21102;-79
2022/02/17 06:41:29;;;;;;;14.63;3.03;;;12.10;1.00;12.40;98981.00;;;;5053138;28;20467;-81
2022/02/17 06:43:58;;;;;;;11.83;2.33;;;12.10;1.00;12.40;99009.00;;;;5060987;28;20536;-79
2022/02/17 06:46:27;;;;;;;11.77;3.40;;;12.10;1.00;12.40;99015.00;;;;5064992;28;20441;-80
2022/02/17 06:48:55;;;;;;;16.80;4.83;;;12.00;1.00;12.40;99024.00;;;;5081618;28;20449;-79
2022/02/17 06:51:23;;;;;;;20.73;3.90;;;12.00;1.00;12.50;99018.00;;;;5049063;28;20480;-80
2022/02/17 06:53:54;;;;;;;13.90;3.50;;;12.10;1.00;12.50;99067.00;;;;5051645;28;20534;-81
2022/02/17 06:56:22;;;;;;;15.57;4.30;;;12.10;1.00;11.90;99080.00;;;;5086014;28;20455;-77
2022/02/17 06:58:52;;;;;;;9.13;2.57;;;11.70;1.00;11.40;99053.00;;;;5053084;28;20453;-80
2022/02/17 07:01:23;;;;;;;11.70;2.87;;;11.30;1.00;11.20;99064.00;;;;5060091;28;20475;-80
2022/02/17 07:03:52;;;;;;;16.73;3.30;;;10.80;1.00;11.10;99077.00;;;;5046477;28;21719;-80
2022/02/17 07:06:23;;;;;;;14.10;3.17;;;10.70;1.00;11.10;99084.00;;;;5040399;28;20853;-81
2022/02/17 07:08:53;;;;;;;16.23;3.77;;;10.70;1.00;11.30;99071.00;;;;5050386;28;20457;-82
2022/02/17 07:11:21;;;;;;;15.83;3.93;;;10.90;1.00;11.40;99104.00;;;;5039545;28;20477;-80
2022/02/17 07:13:51;;;;;;;12.10;2.80;;;11.10;1.00;11.60;99082.00;;;;5036289;28;20835;-79
2022/02/17 07:16:20;;;;;;;15.03;3.90;;;11.20;1.00;11.70;99091.00;;;;5034500;28;20463;-81
2022/02/17 07:18:48;;;;;;;17.63;4.70;;;11.30;1.00;11.80;99081.00;;;;5049801;28;20460;-79
2022/02/17 07:21:20;;;;;;;13.80;3.60;;;11.50;1.00;12.00;99110.00;;;;5049075;28;20465;-80
2022/02/17 07:23:48;;;;;;;21.30;4.10;;;11.80;1.00;12.20;99132.00;;;;5047499;28;20484;-79
2022/02/17 07:26:19;;;;;;;16.93;3.33;;;11.80;1.00;12.30;99110.00;;;;5058245;28;20472;-80
2022/02/17 07:28:49;;;;;;;10.53;3.33;;;11.90;1.00;12.20;99107.00;;;;5061321;28;20525;-79
2022/02/17 07:31:17;;;;;;;12.13;3.00;;;12.10;1.00;12.10;99090.00;;;;5051706;28;20551;-79
2022/02/17 07:33:46;;;;;;;10.90;2.20;;;11.80;1.00;12.00;99136.00;;;;5045400;28;20480;-79
2022/02/17 07:36:16;;;;;;;8.47;2.60;;;11.60;1.00;11.90;99155.00;;;;5042937;28;20501;-80
2022/02/17 07:38:50;;;;;;;12.17;3.37;;;11.60;1.00;11.80;99129.00;;;;5054009;28;20468;-81
2022/02/17 07:41:20;;;;;;;11.03;2.57;;;11.40;1.00;11.80;99102.00;;;;5036956;28;20569;-79
2022/02/17 07:43:48;;;;;;;16.33;3.43;;;11.40;1.00;11.80;99149.00;;;;5044075;28;20476;-78
2022/02/17 07:46:18;;;;;;;10.03;3.77;;;11.30;1.00;11.60;99151.00;;;;5039355;28;20453;-79
2022/02/17 07:48:49;;;;;;;10.13;3.20;;;11.20;1.00;11.60;99176.00;;;;5042646;28;20481;-79
2022/02/17 07:51:18;;;;;;;13.20;3.50;;;11.20;1.00;11.80;99178.00;;;;5041203;28;20468;-78
2022/02/17 07:53:46;;;;;;;14.70;3.77;;;11.30;1.00;11.80;99194.00;;;;5060673;28;20465;-79
2022/02/17 07:56:16;;;;;;;13.43;3.90;;;11.30;1.00;11.60;99190.00;;;;5081682;28;20448;-79
2022/02/17 07:58:46;;;;;;;16.97;3.43;;;11.10;1.00;11.50;99179.00;;;;5046607;28;20468;-81
2022/02/17 08:01:18;;;;;;;11.30;4.43;;;11.00;1.00;11.40;99188.00;;;;5031764;28;20499;-80
2022/02/17 08:03:51;;;;;;;14.07;3.90;;;11.00;1.00;11.50;99175.00;;;;5034866;28;20562;-81
2022/02/17 08:06:20;;;;;;;18.87;4.27;;;11.00;1.00;11.70;99185.00;;;;5046007;28;20549;-80
2022/02/17 08:08:56;;;;;;;15.47;4.10;;;11.10;1.00;11.80;99193.00;;;;5063769;28;20460;-77
2022/02/17 08:11:28;;;;;;;15.63;4.00;;;11.20;1.00;11.90;99179.00;;;;5052810;28;20473;-79
2022/02/17 08:13:58;;;;;;;12.80;3.70;;;11.40;1.00;12.00;99206.00;;;;5048685;28;20453;-79
2022/02/17 08:16:28;;;;;;;19.80;4.40;;;11.50;1.00;12.10;99199.00;;;;5065924;28;20449;-79
2022/02/17 08:18:56;;;;;;;11.00;3.70;;;11.50;1.00;12.20;99189.00;;;;5048427;28;20601;-81
2022/02/17 08:21:45;;;;;;;18.07;3.97;;;11.60;1.00;12.20;99222.00;;;;5045125;28;20484;-80
2022/02/17 08:24:15;;;;;;;15.80;4.13;;;11.80;1.00;12.30;99224.00;;;;5037658;28;20930;-80
2022/02/17 08:26:44;;;;;;;14.73;4.17;;;11.80;1.00;12.30;99204.00;;;;5035716;28;20456;-80
2022/02/17 08:29:13;;;;;;;17.50;4.07;;;11.80;1.00;12.30;99240.00;;;;5037069;28;20452;-81
2022/02/17 08:31:43;;;;;;;9.40;3.30;;;12.00;1.00;12.30;99234.00;;;;5033453;28;20480;-81
2022/02/17 08:34:12;;;;;;;10.37;2.87;;;11.70;1.00;12.40;99262.00;;;;5048092;28;20467;-81
2022/02/17 08:36:40;;;;;;;6.60;2.00;;;11.80;1.00;12.30;99264.00;;;;5073657;28;20472;-79
2022/02/17 08:39:09;;;;;;;10.50;3.37;;;11.70;1.00;12.20;99264.00;;;;5038382;28;20449;-78
2022/02/17 08:41:38;;;;;;;10.87;3.17;;;11.70;1.00;12.40;99277.00;;;;5036913;28;20587;-81
2022/02/17 08:44:08;;;;;;;10.83;3.47;;;11.80;1.00;12.40;99283.00;;;;5033393;28;20479;-80
2022/02/17 08:46:38;;;;;;;12.50;3.17;;;11.90;1.00;12.40;99283.00;;;;5046930;28;20461;-79
2022/02/17 08:49:07;;;;;;;9.70;3.23;;;11.90;1.00;12.50;99297.00;;;;5057341;28;20456;-79
2022/02/17 08:51:37;;;;;;;7.03;2.20;;;11.90;1.00;12.40;99326.00;;;;5054432;28;20476;-80
2022/02/17 08:54:08;;;;;;;13.10;2.90;;;11.90;1.00;12.30;99306.00;;;;5039261;28;20461;-81
2022/02/17 08:56:36;;;;;;;13.03;3.47;;;11.80;1.00;12.30;99307.00;;;;5058099;28;21369;-79
2022/02/17 08:59:04;;;;;;;16.00;3.93;;;11.80;1.00;12.30;99285.00;;;;5081019;28;20457;-78
2022/02/17 09:01:33;;;;;;;15.03;3.93;;;11.80;1.00;12.40;99324.00;;;;5062466;28;20500;-79
2022/02/17 09:04:03;;;;;;;15.17;3.37;;;11.90;1.00;12.40;99304.00;;;;5089277;28;20457;-79
2022/02/17 09:06:32;;;;;;;12.50;3.87;;;11.80;1.00;12.40;99325.00;;;;5063676;28;20472;-80
2022/02/17 09:09:03;;;;;;;12.93;4.40;;;11.90;1.00;12.40;99319.00;;;;5057596;28;20479;-79
2022/02/17 09:11:33;;;;;;;15.50;3.93;;;11.90;1.00;12.50;99354.00;;;;5058425;28;20509;-79
2022/02/17 09:14:01;;;;;;;17.40;3.50;;;11.90;1.00;12.50;99338.00;;;;5055696;28;20520;-82
2022/02/17 09:16:33;;;;;;;13.87;3.73;;;11.90;1.00;12.50;99327.00;;;;5059287;28;20444;-81
2022/02/17 09:19:04;;;;;;;15.70;4.30;;;12.00;1.00;12.70;99310.00;;;;5056348;28;20446;-78
2022/02/17 09:21:35;;;;;;;19.83;4.60;;;12.20;1.00;12.50;99328.00;;;;5057396;28;20693;-80
2022/02/17 09:24:04;;;;;;;17.60;5.00;;;12.30;1.00;12.70;99346.00;;;;5056706;28;20522;-79
2022/02/17 09:26:36;;;;;;;17.47;4.67;;;12.20;1.00;12.70;99326.00;;;;5062167;28;20448;-78
2022/02/17 09:29:05;;;;;;;13.23;3.63;;;12.20;1.00;12.80;99352.00;;;;5063801;28;20460;-80
2022/02/17 09:31:53;;;;;;;16.00;4.27;;;12.30;1.00;12.80;99344.00;;;;5090350;28;20551;-81
2022/02/17 09:34:23;;;;;;;16.90;3.70;;;12.30;1.00;12.80;99292.00;;;;5056792;28;20453;-80
2022/02/17 09:36:51;;;;;;;11.50;3.67;;;12.40;1.00;13.00;99376.00;;;;5057345;28;20436;-77
2022/02/17 09:39:21;;;;;;;13.90;3.87;;;12.50;1.00;12.90;99359.00;;;;5063955;28;20470;-80
2022/02/17 09:41:50;;;;;;;12.90;4.10;;;12.40;1.00;13.10;99377.00;;;;5061051;28;20485;-80
2022/02/17 09:44:22;;;;;;;11.03;3.97;;;12.60;1.00;13.20;99363.00;;;;5066128;28;20518;-78
2022/02/17 09:46:51;;;;;;;17.57;4.07;;;12.70;1.00;13.20;99363.00;;;;5056939;28;20476;-78
2022/02/17 09:49:22;;;;;;;8.13;4.70;;;12.90;1.00;13.40;99360.00;;;;5057601;28;20457;-79
2022/02/17 09:51:53;;;;;;;13.20;4.00;;;13.00;1.00;13.50;99371.00;;;;5056269;28;20453;-78
2022/02/17 09:54:23;;;;;;;17.33;4.07;;;13.10;1.00;13.50;99391.00;;;;5058131;28;20537;-82
2022/02/17 09:56:52;;;;;;;10.53;3.40;;;13.10;1.00;13.40;99403.00;;;;5062372;28;20439;-80
2022/02/17 09:59:23;;;;;;;9.77;3.10;;;13.00;1.00;13.30;99388.00;;;;5053281;28;20441;-80
2022/02/17 10:01:55;;;;;;;9.73;3.50;;;13.00;1.00;13.30;99395.00;;;;5047299;28;20474;-81
2022/02/17 10:04:26;;;;;;;11.93;3.37;;;12.90;1.00;13.40;99387.00;;;;5056828;28;20461;-84
2022/02/17 10:06:57;;;;;;;11.60;3.70;;;12.80;1.00;13.40;99398.00;;;;5044061;28;20457;-82
2022/02/17 10:09:37;;;;;;;9.50;3.00;;;13.00;1.00;13.50;99364.00;;;;5047657;28;20595;-81
2022/02/17 10:12:08;;;;;;;10.17;3.10;;;13.10;1.00;13.60;99404.00;;;;5050420;28;21017;-84
2022/02/17 10:14:39;;;;;;;15.87;3.83;;;13.10;1.00;13.70;99349.00;;;;5054565;28;21287;-80
2022/02/17 10:17:10;;;;;;;17.50;3.27;;;13.30;1.00;13.70;99394.00;;;;5056163;28;20484;-81
2022/02/17 10:19:42;;;;;;;11.40;4.23;;;13.60;1.00;13.80;99407.00;;;;5047570;28;20721;-82
2022/02/17 10:22:13;;;;;;;8.53;3.47;;;13.30;1.00;13.80;99462.00;;;;5043915;28;20479;-81
2022/02/17 10:24:45;;;;;;;9.23;3.00;;;13.40;1.00;13.90;99424.00;;;;5086749;28;20470;-82
2022/02/17 10:27:15;;;;;;;10.60;3.97;;;13.50;1.00;14.00;99416.00;;;;5041164;28;20454;-82
2022/02/17 10:30:00;;;;;;;14.50;4.13;;;13.60;1.00;14.20;99439.00;;;;5049334;28;20444;-83
2022/02/17 10:32:30;;;;;;;11.60;4.97;;;13.80;1.00;14.40;99437.00;;;;5048768;28;20483;-83
2022/02/17 10:35:11;;;;;;;10.73;3.33;;;14.00;1.00;14.90;99415.00;;;;5032606;28;20525;-80
2022/02/17 10:37:44;;;;;;;10.97;3.20;;;14.50;1.00;14.90;99408.00;;;;5039478;28;20456;-80
2022/02/17 10:40:20;;;;;;;11.40;3.57;;;14.50;1.00;15.20;99425.00;;;;5043399;28;20539;-80
2022/02/17 10:43:03;;;;;;;9.67;3.30;;;14.80;1.00;15.30;99446.00;;;;5042674;28;20459;-81
2022/02/17 10:45:39;;;;;;;9.10;4.40;;;15.00;1.00;15.30;99430.00;;;;5043616;28;20520;-82
2022/02/17 10:48:14;;;;;;;7.57;3.40;;;14.90;1.00;14.90;99446.00;;;;5063322;28;20471;-79
2022/02/17 10:50:46;;;;;;;14.73;4.10;;;14.60;1.00;14.80;99386.00;;;;5046288;28;20464;-80
2022/02/17 10:53:23;;;;;;;10.27;3.50;;;14.50;1.00;14.60;99415.00;;;;5043986;28;20801;-79
2022/02/17 10:55:53;;;;;;;13.27;3.37;;;14.30;1.00;14.50;99481.00;;;;5076595;28;20558;-80
2022/02/17 10:58:27;;;;;;;6.47;2.60;;;14.10;1.00;14.40;99462.00;;;;5042435;28;20566;-80
2022/02/17 11:00:58;;;;;;;10.17;4.17;;;14.00;1.00;14.70;99468.00;;;;5038419;28;20484;-82
2022/02/17 11:03:27;;;;;;;11.87;3.50;;;14.30;1.00;15.10;99474.00;;;;5049175;28;20511;-81
2022/02/17 11:06:15;;;;;;;10.23;4.20;;;14.60;1.00;15.10;99491.00;;;;5037136;28;20477;-83
2022/02/17 11:08:47;;;;;;;8.73;2.90;;;14.70;1.00;15.00;99501.00;;;;5041776;28;20455;-82
2022/02/17 11:11:20;;;;;;;11.50;3.43;;;14.60;1.00;14.70;99502.00;;;;5040320;28;20491;-83
2022/02/17 11:13:51;;;;;;;10.10;3.77;;;14.70;1.00;14.30;99526.00;;;;5043562;28;20504;-81
2022/02/17 11:16:23;;;;;;;8.47;3.23;;;14.10;1.00;14.20;99506.00;;;;5066845;28;20526;-80
2022/02/17 11:18:59;;;;;;;11.13;2.83;;;14.00;1.00;14.20;99500.00;;;;5043530;28;20539;-82
2022/02/17 11:21:31;;;;;;;6.40;2.30;;;13.90;1.00;14.30;99504.00;;;;5034639;28;20465;-82